sensor_id;sensor_type;location;lat;lon;timestamp;P1;durP1;ratioP1;P2;durP2;ratioP2
1837;SDS011;918;50.796;6.772;2023-07-09T00:00:21;7.60;;;6.90;;
1837;SDS011;918;50.796;6.772;2023-07-09T00:02:46;7.00;;;6.40;;
1837;SDS011;918;50.796;6.772;2023-07-09T00:05:14;8.10;;;7.10;;
1837;SDS011;918;50.796;6.772;2023-07-09T00:07:41;7.27;;;6.53;;
1837;SDS011;918;50.796;6.772;2023-07-09T00:10:17;8.23;;;6.60;;
1837;SDS011;918;50.796;6.772;2023-07-09T00:12:44;7.57;;;6.83;;
1837;SDS011;918;50.796;6.772;2023-07-09T00:15:11;8.00;;;7.17;;
1837;SDS011;918;50.796;6.772;2023-07-09T00:17:37;8.33;;;7.53;;
1837;SDS011;918;50.796;6.772;2023-07-09T00:20:04;8.90;;;7.17;;
1837;SDS011;918;50.796;6.772;2023-07-09T00:22:36;7.90;;;7.20;;
1837;SDS011;918;50.796;6.772;2023-07-09T00:25:01;9.50;;;7.73;;
1837;SDS011;918;50.796;6.772;2023-07-09T00:27:27;8.73;;;7.30;;
1837;SDS011;918;50.796;6.772;2023-07-09T00:29:53;7.90;;;7.07;;
1837;SDS011;918;50.796;6.772;2023-07-09T00:32:19;8.40;;;7.33;;
1837;SDS011;918;50.796;6.772;2023-07-09T00:34:50;8.87;;;8.03;;
1837;SDS011;918;50.796;6.772;2023-07-09T00:37:17;7.50;;;6.63;;
1837;SDS011;918;50.796;6.772;2023-07-09T00:39:44;8.70;;;7.80;;
1837;SDS011;918;50.796;6.772;2023-07-09T00:42:16;7.80;;;7.20;;
1837;SDS011;918;50.796;6.772;2023-07-09T00:44:44;7.30;;;6.47;;
1837;SDS011;918;50.796;6.772;2023-07-09T00:52:55;8.43;;;7.40;;
1837;SDS011;918;50.796;6.772;2023-07-09T00:55:25;9.67;;;7.30;;
1837;SDS011;918;50.796;6.772;2023-07-09T00:57:53;8.77;;;7.30;;
1837;SDS011;918;50.796;6.772;2023-07-09T01:00:21;8.30;;;7.60;;
1837;SDS011;918;50.796;6.772;2023-07-09T01:02:50;7.80;;;7.10;;
1837;SDS011;918;50.796;6.772;2023-07-09T01:05:15;8.57;;;7.73;;
1837;SDS011;918;50.796;6.772;2023-07-09T01:07:42;7.63;;;7.03;;
1837;SDS011;918;50.796;6.772;2023-07-09T01:10:11;8.33;;;7.53;;
1837;SDS011;918;50.796;6.772;2023-07-09T01:12:38;9.03;;;7.93;;
1837;SDS011;918;50.796;6.772;2023-07-09T01:15:03;8.63;;;7.83;;
1837;SDS011;918;50.796;6.772;2023-07-09T01:17:29;8.57;;;7.60;;
1837;SDS011;918;50.796;6.772;2023-07-09T01:19:54;8.73;;;7.60;;
1837;SDS011;918;50.796;6.772;2023-07-09T01:22:21;7.93;;;7.30;;
1837;SDS011;918;50.796;6.772;2023-07-09T01:24:58;8.40;;;7.67;;
1837;SDS011;918;50.796;6.772;2023-07-09T01:27:35;8.73;;;7.37;;
1837;SDS011;918;50.796;6.772;2023-07-09T01:30:11;8.70;;;6.83;;
1837;SDS011;918;50.796;6.772;2023-07-09T01:32:57;8.33;;;7.60;;
1837;SDS011;918;50.796;6.772;2023-07-09T01:35:24;7.53;;;6.83;;
1837;SDS011;918;50.796;6.772;2023-07-09T01:37:51;8.00;;;7.30;;
1837;SDS011;918;50.796;6.772;2023-07-09T01:40:18;8.30;;;7.50;;
1837;SDS011;918;50.796;6.772;2023-07-09T01:42:44;7.87;;;7.13;;
1837;SDS011;918;50.796;6.772;2023-07-09T01:45:10;7.20;;;6.60;;
1837;SDS011;918;50.796;6.772;2023-07-09T01:47:36;7.80;;;7.00;;
1837;SDS011;918;50.796;6.772;2023-07-09T01:50:02;7.97;;;7.03;;
1837;SDS011;918;50.796;6.772;2023-07-09T01:52:29;9.00;;;6.70;;
1837;SDS011;918;50.796;6.772;2023-07-09T01:54:55;6.90;;;6.30;;
1837;SDS011;918;50.796;6.772;2023-07-09T01:57:27;9.23;;;7.53;;
1837;SDS011;918;50.796;6.772;2023-07-09T02:00:06;7.23;;;6.53;;
1837;SDS011;918;50.796;6.772;2023-07-09T02:02:36;13.93;;;6.97;;
1837;SDS011;918;50.796;6.772;2023-07-09T02:05:03;8.83;;;8.07;;
1837;SDS011;918;50.796;6.772;2023-07-09T02:07:29;9.27;;;7.17;;
1837;SDS011;918;50.796;6.772;2023-07-09T02:09:55;7.53;;;6.83;;
1837;SDS011;918;50.796;6.772;2023-07-09T02:12:20;7.43;;;6.73;;
1837;SDS011;918;50.796;6.772;2023-07-09T02:14:45;7.90;;;7.20;;
1837;SDS011;918;50.796;6.772;2023-07-09T02:17:12;7.87;;;6.90;;
1837;SDS011;918;50.796;6.772;2023-07-09T02:19:39;7.70;;;6.93;;
1837;SDS011;918;50.796;6.772;2023-07-09T02:22:04;7.30;;;6.70;;
1837;SDS011;918;50.796;6.772;2023-07-09T02:24:30;8.37;;;7.33;;
1837;SDS011;918;50.796;6.772;2023-07-09T02:26:57;7.73;;;7.03;;
1837;SDS011;918;50.796;6.772;2023-07-09T02:29:24;8.07;;;7.40;;
1837;SDS011;918;50.796;6.772;2023-07-09T02:31:50;8.97;;;8.03;;
1837;SDS011;918;50.796;6.772;2023-07-09T02:34:19;7.33;;;6.50;;
1837;SDS011;918;50.796;6.772;2023-07-09T02:36:45;7.30;;;6.70;;
1837;SDS011;918;50.796;6.772;2023-07-09T02:39:11;8.87;;;8.00;;
1837;SDS011;918;50.796;6.772;2023-07-09T02:41:38;7.77;;;7.10;;
1837;SDS011;918;50.796;6.772;2023-07-09T02:44:04;8.30;;;7.60;;
1837;SDS011;918;50.796;6.772;2023-07-09T02:46:29;8.10;;;7.40;;
1837;SDS011;918;50.796;6.772;2023-07-09T02:48:55;10.80;;;7.83;;
1837;SDS011;918;50.796;6.772;2023-07-09T02:51:20;8.77;;;7.53;;
1837;SDS011;918;50.796;6.772;2023-07-09T02:53:46;9.00;;;8.20;;
1837;SDS011;918;50.796;6.772;2023-07-09T02:56:11;8.03;;;7.40;;
1837;SDS011;918;50.796;6.772;2023-07-09T02:58:36;8.50;;;7.63;;
1837;SDS011;918;50.796;6.772;2023-07-09T03:01:01;8.53;;;7.80;;
1837;SDS011;918;50.796;6.772;2023-07-09T03:03:28;7.70;;;7.00;;
1837;SDS011;918;50.796;6.772;2023-07-09T03:05:53;7.43;;;6.83;;
1837;SDS011;918;50.796;6.772;2023-07-09T03:08:19;8.40;;;7.73;;
1837;SDS011;918;50.796;6.772;2023-07-09T03:10:44;8.07;;;7.27;;
1837;SDS011;918;50.796;6.772;2023-07-09T03:13:09;7.27;;;6.63;;
1837;SDS011;918;50.796;6.772;2023-07-09T03:15:34;7.90;;;7.20;;
1837;SDS011;918;50.796;6.772;2023-07-09T03:18:00;9.40;;;7.97;;
1837;SDS011;918;50.796;6.772;2023-07-09T03:20:25;7.80;;;7.20;;
1837;SDS011;918;50.796;6.772;2023-07-09T03:22:50;7.67;;;6.97;;
1837;SDS011;918;50.796;6.772;2023-07-09T03:25:15;8.10;;;7.30;;
1837;SDS011;918;50.796;6.772;2023-07-09T03:27:41;8.03;;;7.33;;
1837;SDS011;918;50.796;6.772;2023-07-09T03:30:06;8.53;;;7.60;;
1837;SDS011;918;50.796;6.772;2023-07-09T03:32:32;8.23;;;7.53;;
1837;SDS011;918;50.796;6.772;2023-07-09T03:34:57;8.13;;;7.33;;
1837;SDS011;918;50.796;6.772;2023-07-09T03:37:22;7.57;;;6.80;;
1837;SDS011;918;50.796;6.772;2023-07-09T03:39:47;8.00;;;7.20;;
1837;SDS011;918;50.796;6.772;2023-07-09T03:42:13;8.63;;;7.83;;
1837;SDS011;918;50.796;6.772;2023-07-09T03:44:38;8.47;;;7.57;;
1837;SDS011;918;50.796;6.772;2023-07-09T03:47:03;7.80;;;7.00;;
1837;SDS011;918;50.796;6.772;2023-07-09T03:49:29;7.97;;;7.17;;
1837;SDS011;918;50.796;6.772;2023-07-09T03:51:54;8.43;;;7.60;;
1837;SDS011;918;50.796;6.772;2023-07-09T03:54:19;7.80;;;7.00;;
1837;SDS011;918;50.796;6.772;2023-07-09T03:56:44;7.40;;;6.80;;
1837;SDS011;918;50.796;6.772;2023-07-09T03:59:10;8.43;;;7.47;;
1837;SDS011;918;50.796;6.772;2023-07-09T04:01:35;8.17;;;7.43;;
1837;SDS011;918;50.796;6.772;2023-07-09T04:04:00;12.17;;;8.20;;
1837;SDS011;918;50.796;6.772;2023-07-09T04:06:26;8.87;;;8.10;;
1837;SDS011;918;50.796;6.772;2023-07-09T04:08:51;10.60;;;8.27;;
1837;SDS011;918;50.796;6.772;2023-07-09T04:11:16;10.83;;;7.87;;
1837;SDS011;918;50.796;6.772;2023-07-09T04:13:41;13.03;;;8.67;;
1837;SDS011;918;50.796;6.772;2023-07-09T04:16:07;10.50;;;8.57;;
1837;SDS011;918;50.796;6.772;2023-07-09T04:18:34;7.57;;;6.90;;
1837;SDS011;918;50.796;6.772;2023-07-09T04:21:01;20.97;;;9.87;;
1837;SDS011;918;50.796;6.772;2023-07-09T04:23:26;29.97;;;14.93;;
1837;SDS011;918;50.796;6.772;2023-07-09T04:25:51;33.90;;;13.00;;
1837;SDS011;918;50.796;6.772;2023-07-09T04:28:16;23.90;;;11.73;;
1837;SDS011;918;50.796;6.772;2023-07-09T04:30:48;21.87;;;10.90;;
1837;SDS011;918;50.796;6.772;2023-07-09T04:33:15;25.23;;;12.63;;
1837;SDS011;918;50.796;6.772;2023-07-09T04:35:42;35.20;;;15.43;;
1837;SDS011;918;50.796;6.772;2023-07-09T04:38:08;16.80;;;9.70;;
1837;SDS011;918;50.796;6.772;2023-07-09T04:40:34;8.40;;;7.50;;
1837;SDS011;918;50.796;6.772;2023-07-09T04:42:59;8.67;;;7.77;;
1837;SDS011;918;50.796;6.772;2023-07-09T04:45:24;9.43;;;7.73;;
1837;SDS011;918;50.796;6.772;2023-07-09T04:47:49;8.33;;;7.57;;
1837;SDS011;918;50.796;6.772;2023-07-09T04:50:14;9.00;;;7.77;;
1837;SDS011;918;50.796;6.772;2023-07-09T04:52:40;7.80;;;6.43;;
1837;SDS011;918;50.796;6.772;2023-07-09T04:55:05;7.63;;;6.83;;
1837;SDS011;918;50.796;6.772;2023-07-09T04:57:32;7.40;;;6.77;;
1837;SDS011;918;50.796;6.772;2023-07-09T04:59:57;8.00;;;7.27;;
1837;SDS011;918;50.796;6.772;2023-07-09T05:02:23;7.57;;;6.97;;
1837;SDS011;918;50.796;6.772;2023-07-09T05:04:48;8.73;;;7.27;;
1837;SDS011;918;50.796;6.772;2023-07-09T05:07:13;8.57;;;5.83;;
1837;SDS011;918;50.796;6.772;2023-07-09T05:09:39;8.13;;;6.90;;
1837;SDS011;918;50.796;6.772;2023-07-09T05:12:04;6.60;;;5.93;;
1837;SDS011;918;50.796;6.772;2023-07-09T05:14:30;7.30;;;6.57;;
1837;SDS011;918;50.796;6.772;2023-07-09T05:16:55;6.83;;;6.20;;
1837;SDS011;918;50.796;6.772;2023-07-09T05:19:20;6.43;;;5.83;;
1837;SDS011;918;50.796;6.772;2023-07-09T05:21:45;7.60;;;6.47;;
1837;SDS011;918;50.796;6.772;2023-07-09T05:24:11;6.63;;;6.10;;
1837;SDS011;918;50.796;6.772;2023-07-09T05:26:36;7.50;;;5.77;;
1837;SDS011;918;50.796;6.772;2023-07-09T05:29:04;7.70;;;5.73;;
1837;SDS011;918;50.796;6.772;2023-07-09T05:31:30;5.77;;;5.10;;
1837;SDS011;918;50.796;6.772;2023-07-09T05:33:56;6.23;;;5.70;;
1837;SDS011;918;50.796;6.772;2023-07-09T05:36:21;7.37;;;6.57;;
1837;SDS011;918;50.796;6.772;2023-07-09T05:38:47;6.20;;;5.40;;
1837;SDS011;918;50.796;6.772;2023-07-09T05:41:12;8.23;;;5.60;;
1837;SDS011;918;50.796;6.772;2023-07-09T05:43:37;5.37;;;4.83;;
1837;SDS011;918;50.796;6.772;2023-07-09T05:46:04;6.23;;;5.73;;
1837;SDS011;918;50.796;6.772;2023-07-09T05:48:30;6.40;;;5.83;;
1837;SDS011;918;50.796;6.772;2023-07-09T05:50:55;5.27;;;4.90;;
1837;SDS011;918;50.796;6.772;2023-07-09T05:53:21;6.20;;;5.57;;
1837;SDS011;918;50.796;6.772;2023-07-09T05:55:47;4.90;;;4.57;;
1837;SDS011;918;50.796;6.772;2023-07-09T05:58:12;5.80;;;4.87;;
1837;SDS011;918;50.796;6.772;2023-07-09T06:00:37;6.57;;;4.90;;
1837;SDS011;918;50.796;6.772;2023-07-09T06:03:04;6.27;;;4.90;;
1837;SDS011;918;50.796;6.772;2023-07-09T06:05:32;5.60;;;5.20;;
1837;SDS011;918;50.796;6.772;2023-07-09T06:07:58;5.27;;;4.87;;
1837;SDS011;918;50.796;6.772;2023-07-09T06:10:24;5.90;;;5.40;;
1837;SDS011;918;50.796;6.772;2023-07-09T06:12:49;5.13;;;4.73;;
1837;SDS011;918;50.796;6.772;2023-07-09T06:15:14;5.10;;;4.67;;
1837;SDS011;918;50.796;6.772;2023-07-09T06:17:40;5.43;;;4.70;;
1837;SDS011;918;50.796;6.772;2023-07-09T06:20:07;4.97;;;4.57;;
1837;SDS011;918;50.796;6.772;2023-07-09T06:22:33;5.60;;;5.20;;
1837;SDS011;918;50.796;6.772;2023-07-09T06:24:58;4.70;;;4.30;;
1837;SDS011;918;50.796;6.772;2023-07-09T06:27:23;5.77;;;5.23;;
1837;SDS011;918;50.796;6.772;2023-07-09T06:29:48;5.07;;;4.67;;
1837;SDS011;918;50.796;6.772;2023-07-09T06:32:14;5.27;;;4.87;;
1837;SDS011;918;50.796;6.772;2023-07-09T06:34:39;4.80;;;4.40;;
1837;SDS011;918;50.796;6.772;2023-07-09T06:37:04;4.77;;;4.43;;
1837;SDS011;918;50.796;6.772;2023-07-09T06:39:30;4.20;;;3.80;;
1837;SDS011;918;50.796;6.772;2023-07-09T06:41:55;6.03;;;5.40;;
1837;SDS011;918;50.796;6.772;2023-07-09T06:44:21;4.00;;;3.70;;
1837;SDS011;918;50.796;6.772;2023-07-09T06:46:46;4.80;;;4.40;;
1837;SDS011;918;50.796;6.772;2023-07-09T06:49:13;4.63;;;4.23;;
1837;SDS011;918;50.796;6.772;2023-07-09T06:51:38;4.30;;;4.00;;
1837;SDS011;918;50.796;6.772;2023-07-09T06:54:03;4.60;;;4.20;;
1837;SDS011;918;50.796;6.772;2023-07-09T06:56:30;5.67;;;4.23;;
1837;SDS011;918;50.796;6.772;2023-07-09T06:58:56;4.80;;;4.43;;
1837;SDS011;918;50.796;6.772;2023-07-09T07:01:22;4.50;;;4.20;;
1837;SDS011;918;50.796;6.772;2023-07-09T07:03:47;4.73;;;4.33;;
1837;SDS011;918;50.796;6.772;2023-07-09T07:06:13;4.37;;;4.07;;
1837;SDS011;918;50.796;6.772;2023-07-09T07:08:38;4.23;;;3.93;;
1837;SDS011;918;50.796;6.772;2023-07-09T07:11:03;4.00;;;3.70;;
1837;SDS011;918;50.796;6.772;2023-07-09T07:13:34;4.73;;;4.43;;
1837;SDS011;918;50.796;6.772;2023-07-09T07:16:01;4.20;;;3.90;;
1837;SDS011;918;50.796;6.772;2023-07-09T07:18:28;4.60;;;4.30;;
1837;SDS011;918;50.796;6.772;2023-07-09T07:20:53;4.80;;;4.43;;
1837;SDS011;918;50.796;6.772;2023-07-09T07:23:18;4.60;;;4.20;;
1837;SDS011;918;50.796;6.772;2023-07-09T07:25:47;4.87;;;4.53;;
1837;SDS011;918;50.796;6.772;2023-07-09T07:28:12;4.37;;;4.07;;
1837;SDS011;918;50.796;6.772;2023-07-09T07:30:38;4.80;;;4.40;;
1837;SDS011;918;50.796;6.772;2023-07-09T07:33:03;4.70;;;4.40;;
1837;SDS011;918;50.796;6.772;2023-07-09T07:35:29;4.20;;;3.90;;
1837;SDS011;918;50.796;6.772;2023-07-09T07:37:54;4.20;;;3.90;;
1837;SDS011;918;50.796;6.772;2023-07-09T07:40:19;4.27;;;3.97;;
1837;SDS011;918;50.796;6.772;2023-07-09T07:42:44;4.70;;;4.40;;
1837;SDS011;918;50.796;6.772;2023-07-09T07:45:10;4.23;;;3.93;;
1837;SDS011;918;50.796;6.772;2023-07-09T07:47:36;4.50;;;4.20;;
1837;SDS011;918;50.796;6.772;2023-07-09T07:50:01;5.00;;;4.50;;
1837;SDS011;918;50.796;6.772;2023-07-09T07:52:27;4.60;;;4.30;;
1837;SDS011;918;50.796;6.772;2023-07-09T07:54:53;4.53;;;4.23;;
1837;SDS011;918;50.796;6.772;2023-07-09T07:57:18;5.10;;;4.60;;
1837;SDS011;918;50.796;6.772;2023-07-09T07:59:44;4.20;;;3.90;;
1837;SDS011;918;50.796;6.772;2023-07-09T08:02:11;4.23;;;3.93;;
1837;SDS011;918;50.796;6.772;2023-07-09T08:04:38;4.00;;;3.70;;
1837;SDS011;918;50.796;6.772;2023-07-09T08:07:05;4.20;;;3.80;;
1837;SDS011;918;50.796;6.772;2023-07-09T08:09:31;4.67;;;4.33;;
1837;SDS011;918;50.796;6.772;2023-07-09T08:11:57;4.60;;;4.20;;
1837;SDS011;918;50.796;6.772;2023-07-09T08:14:23;4.07;;;3.83;;
1837;SDS011;918;50.796;6.772;2023-07-09T08:16:48;4.33;;;4.03;;
1837;SDS011;918;50.796;6.772;2023-07-09T08:19:13;3.73;;;3.53;;
1837;SDS011;918;50.796;6.772;2023-07-09T08:21:40;4.67;;;4.27;;
1837;SDS011;918;50.796;6.772;2023-07-09T08:24:05;4.50;;;4.20;;
1837;SDS011;918;50.796;6.772;2023-07-09T08:26:30;4.53;;;4.23;;
1837;SDS011;918;50.796;6.772;2023-07-09T08:28:56;4.90;;;4.50;;
1837;SDS011;918;50.796;6.772;2023-07-09T08:31:21;4.30;;;4.10;;
1837;SDS011;918;50.796;6.772;2023-07-09T08:33:47;4.57;;;4.17;;
1837;SDS011;918;50.796;6.772;2023-07-09T08:36:12;4.20;;;3.87;;
1837;SDS011;918;50.796;6.772;2023-07-09T08:38:38;4.33;;;3.93;;
1837;SDS011;918;50.796;6.772;2023-07-09T08:49:29;4.87;;;4.47;;
1837;SDS011;918;50.796;6.772;2023-07-09T08:52:02;3.73;;;3.43;;
1837;SDS011;918;50.796;6.772;2023-07-09T08:54:34;4.43;;;4.23;;
1837;SDS011;918;50.796;6.772;2023-07-09T08:57:07;4.43;;;4.23;;
1837;SDS011;918;50.796;6.772;2023-07-09T08:59:39;4.30;;;3.90;;
1837;SDS011;918;50.796;6.772;2023-07-09T09:02:06;4.27;;;4.00;;
1837;SDS011;918;50.796;6.772;2023-07-09T09:04:41;4.80;;;3.70;;
1837;SDS011;918;50.796;6.772;2023-07-09T09:07:13;4.87;;;4.47;;
1837;SDS011;918;50.796;6.772;2023-07-09T09:09:49;3.70;;;3.50;;
1837;SDS011;918;50.796;6.772;2023-07-09T09:12:20;4.80;;;4.40;;
1837;SDS011;918;50.796;6.772;2023-07-09T09:14:52;3.97;;;3.70;;
1837;SDS011;918;50.796;6.772;2023-07-09T09:17:23;3.83;;;3.53;;
1837;SDS011;918;50.796;6.772;2023-07-09T09:22:23;3.93;;;3.70;;
1837;SDS011;918;50.796;6.772;2023-07-09T09:27:34;3.70;;;3.40;;
1837;SDS011;918;50.796;6.772;2023-07-09T09:29:59;3.63;;;3.40;;
1837;SDS011;918;50.796;6.772;2023-07-09T09:32:26;3.50;;;3.20;;
1837;SDS011;918;50.796;6.772;2023-07-09T09:34:52;4.70;;;3.30;;
1837;SDS011;918;50.796;6.772;2023-07-09T09:37:23;3.97;;;3.43;;
1837;SDS011;918;50.796;6.772;2023-07-09T09:39:50;4.03;;;3.63;;
1837;SDS011;918;50.796;6.772;2023-07-09T09:42:16;4.17;;;3.87;;
1837;SDS011;918;50.796;6.772;2023-07-09T09:44:44;4.67;;;3.53;;
1837;SDS011;918;50.796;6.772;2023-07-09T09:47:10;3.60;;;3.40;;
1837;SDS011;918;50.796;6.772;2023-07-09T09:49:40;4.00;;;3.70;;
1837;SDS011;918;50.796;6.772;2023-07-09T09:52:10;9.13;;;3.73;;
1837;SDS011;918;50.796;6.772;2023-07-09T09:54:39;6.30;;;3.23;;
1837;SDS011;918;50.796;6.772;2023-07-09T09:57:21;2.97;;;2.77;;
1837;SDS011;918;50.796;6.772;2023-07-09T09:59:49;3.30;;;3.10;;
1837;SDS011;918;50.796;6.772;2023-07-09T10:02:18;3.30;;;3.10;;
1837;SDS011;918;50.796;6.772;2023-07-09T10:04:45;3.70;;;3.20;;
1837;SDS011;918;50.796;6.772;2023-07-09T10:07:15;3.53;;;3.33;;
1837;SDS011;918;50.796;6.772;2023-07-09T10:09:51;3.20;;;2.93;;
1837;SDS011;918;50.796;6.772;2023-07-09T10:21:10;3.50;;;3.30;;
1837;SDS011;918;50.796;6.772;2023-07-09T10:23:55;3.70;;;3.40;;
1837;SDS011;918;50.796;6.772;2023-07-09T10:26:30;3.10;;;2.90;;
1837;SDS011;918;50.796;6.772;2023-07-09T10:40:07;4.60;;;3.47;;
1837;SDS011;918;50.796;6.772;2023-07-09T10:42:40;3.10;;;2.83;;
1837;SDS011;918;50.796;6.772;2023-07-09T10:45:10;4.13;;;3.70;;
1837;SDS011;918;50.796;6.772;2023-07-09T10:50:12;3.40;;;2.97;;
1837;SDS011;918;50.796;6.772;2023-07-09T10:52:41;3.37;;;3.17;;
1837;SDS011;918;50.796;6.772;2023-07-09T10:55:13;3.73;;;3.33;;
1837;SDS011;918;50.796;6.772;2023-07-09T11:00:38;3.20;;;3.00;;
1837;SDS011;918;50.796;6.772;2023-07-09T11:03:13;3.77;;;3.30;;
1837;SDS011;918;50.796;6.772;2023-07-09T11:05:41;3.93;;;3.30;;
1837;SDS011;918;50.796;6.772;2023-07-09T11:08:11;3.53;;;3.23;;
1837;SDS011;918;50.796;6.772;2023-07-09T11:10:39;3.77;;;3.43;;
1837;SDS011;918;50.796;6.772;2023-07-09T11:13:10;3.57;;;3.27;;
1837;SDS011;918;50.796;6.772;2023-07-09T11:15:39;3.27;;;3.07;;
1837;SDS011;918;50.796;6.772;2023-07-09T11:18:07;3.80;;;3.50;;
1837;SDS011;918;50.796;6.772;2023-07-09T11:20:36;4.67;;;4.27;;
1837;SDS011;918;50.796;6.772;2023-07-09T11:23:16;3.27;;;2.97;;
1837;SDS011;918;50.796;6.772;2023-07-09T11:25:44;3.77;;;3.47;;
1837;SDS011;918;50.796;6.772;2023-07-09T11:28:11;3.07;;;2.87;;
1837;SDS011;918;50.796;6.772;2023-07-09T11:30:49;3.57;;;3.27;;
1837;SDS011;918;50.796;6.772;2023-07-09T11:33:20;4.20;;;3.60;;
1837;SDS011;918;50.796;6.772;2023-07-09T11:35:52;4.23;;;3.87;;
1837;SDS011;918;50.796;6.772;2023-07-09T11:38:20;3.90;;;3.60;;
1837;SDS011;918;50.796;6.772;2023-07-09T11:40:51;4.07;;;3.50;;
1837;SDS011;918;50.796;6.772;2023-07-09T11:43:28;4.07;;;3.63;;
1837;SDS011;918;50.796;6.772;2023-07-09T11:45:56;3.40;;;3.20;;
1837;SDS011;918;50.796;6.772;2023-07-09T11:48:29;3.10;;;2.80;;
1837;SDS011;918;50.796;6.772;2023-07-09T11:50:58;3.00;;;2.80;;
1837;SDS011;918;50.796;6.772;2023-07-09T11:53:41;3.60;;;3.20;;
1837;SDS011;918;50.796;6.772;2023-07-09T11:56:09;3.77;;;3.43;;
1837;SDS011;918;50.796;6.772;2023-07-09T11:58:35;3.80;;;2.97;;
1837;SDS011;918;50.796;6.772;2023-07-09T12:01:00;3.57;;;3.37;;
1837;SDS011;918;50.796;6.772;2023-07-09T12:03:34;3.70;;;3.40;;
1837;SDS011;918;50.796;6.772;2023-07-09T12:06:19;5.60;;;3.50;;
1837;SDS011;918;50.796;6.772;2023-07-09T12:08:49;4.00;;;3.30;;
1837;SDS011;918;50.796;6.772;2023-07-09T12:11:23;3.60;;;3.30;;
1837;SDS011;918;50.796;6.772;2023-07-09T12:13:53;3.60;;;3.30;;
1837;SDS011;918;50.796;6.772;2023-07-09T12:16:22;3.70;;;3.03;;
1837;SDS011;918;50.796;6.772;2023-07-09T12:18:51;2.80;;;2.70;;
1837;SDS011;918;50.796;6.772;2023-07-09T12:21:17;3.23;;;3.00;;
1837;SDS011;918;50.796;6.772;2023-07-09T12:23:43;3.77;;;3.07;;
1837;SDS011;918;50.796;6.772;2023-07-09T12:26:15;4.33;;;3.60;;
1837;SDS011;918;50.796;6.772;2023-07-09T12:28:41;3.10;;;2.70;;
1837;SDS011;918;50.796;6.772;2023-07-09T12:31:11;4.10;;;3.80;;
1837;SDS011;918;50.796;6.772;2023-07-09T12:33:37;4.10;;;3.33;;
1837;SDS011;918;50.796;6.772;2023-07-09T12:36:04;3.67;;;3.37;;
1837;SDS011;918;50.796;6.772;2023-07-09T12:38:32;3.47;;;3.17;;
1837;SDS011;918;50.796;6.772;2023-07-09T12:41:24;3.53;;;3.10;;
1837;SDS011;918;50.796;6.772;2023-07-09T12:43:52;3.47;;;3.27;;
1837;SDS011;918;50.796;6.772;2023-07-09T12:46:18;3.60;;;3.30;;
1837;SDS011;918;50.796;6.772;2023-07-09T12:48:44;3.40;;;2.73;;
1837;SDS011;918;50.796;6.772;2023-07-09T12:51:14;4.67;;;3.60;;
1837;SDS011;918;50.796;6.772;2023-07-09T12:53:41;3.87;;;3.43;;
1837;SDS011;918;50.796;6.772;2023-07-09T12:56:10;3.00;;;2.70;;
1837;SDS011;918;50.796;6.772;2023-07-09T12:58:38;3.77;;;3.47;;
1837;SDS011;918;50.796;6.772;2023-07-09T13:01:15;3.93;;;3.00;;
1837;SDS011;918;50.796;6.772;2023-07-09T13:03:41;3.17;;;2.97;;
1837;SDS011;918;50.796;6.772;2023-07-09T13:06:26;3.17;;;2.97;;
1837;SDS011;918;50.796;6.772;2023-07-09T13:08:57;3.70;;;3.40;;
1837;SDS011;918;50.796;6.772;2023-07-09T13:11:24;3.40;;;3.07;;
1837;SDS011;918;50.796;6.772;2023-07-09T13:13:58;3.07;;;2.87;;
1837;SDS011;918;50.796;6.772;2023-07-09T13:16:26;3.70;;;3.40;;
1837;SDS011;918;50.796;6.772;2023-07-09T13:18:52;3.63;;;3.30;;
1837;SDS011;918;50.796;6.772;2023-07-09T13:21:18;3.77;;;3.47;;
1837;SDS011;918;50.796;6.772;2023-07-09T13:23:44;4.50;;;4.10;;
1837;SDS011;918;50.796;6.772;2023-07-09T13:26:09;3.53;;;3.23;;
1837;SDS011;918;50.796;6.772;2023-07-09T13:28:35;3.33;;;3.03;;
1837;SDS011;918;50.796;6.772;2023-07-09T13:31:01;3.90;;;3.60;;
1837;SDS011;918;50.796;6.772;2023-07-09T13:33:33;3.27;;;2.97;;
1837;SDS011;918;50.796;6.772;2023-07-09T13:35:59;3.80;;;3.47;;
1837;SDS011;918;50.796;6.772;2023-07-09T13:38:24;4.23;;;3.57;;
1837;SDS011;918;50.796;6.772;2023-07-09T13:40:53;3.97;;;3.67;;
1837;SDS011;918;50.796;6.772;2023-07-09T13:43:23;4.00;;;3.30;;
1837;SDS011;918;50.796;6.772;2023-07-09T13:45:54;3.60;;;3.40;;
1837;SDS011;918;50.796;6.772;2023-07-09T13:48:22;4.30;;;3.57;;
1837;SDS011;918;50.796;6.772;2023-07-09T13:50:48;4.37;;;3.50;;
1837;SDS011;918;50.796;6.772;2023-07-09T13:53:16;3.63;;;3.33;;
1837;SDS011;918;50.796;6.772;2023-07-09T13:55:43;3.70;;;3.20;;
1837;SDS011;918;50.796;6.772;2023-07-09T13:58:10;3.53;;;3.03;;
1837;SDS011;918;50.796;6.772;2023-07-09T14:00:36;3.20;;;2.97;;
1837;SDS011;918;50.796;6.772;2023-07-09T14:03:02;5.43;;;3.47;;
1837;SDS011;918;50.796;6.772;2023-07-09T14:05:28;4.67;;;3.70;;
1837;SDS011;918;50.796;6.772;2023-07-09T14:07:53;4.37;;;3.40;;
1837;SDS011;918;50.796;6.772;2023-07-09T14:10:18;4.50;;;3.20;;
1837;SDS011;918;50.796;6.772;2023-07-09T14:12:44;3.43;;;3.20;;
1837;SDS011;918;50.796;6.772;2023-07-09T14:15:15;4.60;;;3.57;;
1837;SDS011;918;50.796;6.772;2023-07-09T14:17:42;6.67;;;4.33;;
1837;SDS011;918;50.796;6.772;2023-07-09T14:20:12;5.37;;;3.67;;
1837;SDS011;918;50.796;6.772;2023-07-09T14:22:40;4.00;;;3.63;;
1837;SDS011;918;50.796;6.772;2023-07-09T14:25:09;5.20;;;4.13;;
1837;SDS011;918;50.796;6.772;2023-07-09T14:27:44;8.40;;;3.90;;
1837;SDS011;918;50.796;6.772;2023-07-09T14:30:13;4.53;;;3.93;;
1837;SDS011;918;50.796;6.772;2023-07-09T14:32:40;6.57;;;3.80;;
1837;SDS011;918;50.796;6.772;2023-07-09T14:35:14;4.43;;;4.03;;
1837;SDS011;918;50.796;6.772;2023-07-09T14:37:42;6.00;;;4.53;;
1837;SDS011;918;50.796;6.772;2023-07-09T14:40:09;4.40;;;3.97;;
1837;SDS011;918;50.796;6.772;2023-07-09T14:42:35;5.93;;;5.37;;
1837;SDS011;918;50.796;6.772;2023-07-09T14:45:01;5.03;;;4.60;;
1837;SDS011;918;50.796;6.772;2023-07-09T14:47:28;6.10;;;5.70;;
1837;SDS011;918;50.796;6.772;2023-07-09T14:49:53;6.73;;;6.13;;
1837;SDS011;918;50.796;6.772;2023-07-09T14:52:19;7.57;;;6.90;;
1837;SDS011;918;50.796;6.772;2023-07-09T14:54:46;7.73;;;7.10;;
1837;SDS011;918;50.796;6.772;2023-07-09T14:57:23;7.73;;;6.97;;
1837;SDS011;918;50.796;6.772;2023-07-09T14:59:51;7.20;;;6.47;;
1837;SDS011;918;50.796;6.772;2023-07-09T15:04:53;6.70;;;6.10;;
1837;SDS011;918;50.796;6.772;2023-07-09T15:07:18;5.83;;;5.33;;
1837;SDS011;918;50.796;6.772;2023-07-09T15:09:44;7.40;;;6.80;;
1837;SDS011;918;50.796;6.772;2023-07-09T15:12:19;9.90;;;9.20;;
1837;SDS011;918;50.796;6.772;2023-07-09T15:14:49;9.63;;;8.83;;
1837;SDS011;918;50.796;6.772;2023-07-09T15:17:14;11.27;;;10.30;;
1837;SDS011;918;50.796;6.772;2023-07-09T15:19:39;10.50;;;9.70;;
1837;SDS011;918;50.796;6.772;2023-07-09T15:22:05;12.43;;;11.43;;
1837;SDS011;918;50.796;6.772;2023-07-09T15:24:38;11.60;;;10.73;;
1837;SDS011;918;50.796;6.772;2023-07-09T15:27:03;13.40;;;12.30;;
1837;SDS011;918;50.796;6.772;2023-07-09T15:29:30;12.47;;;11.50;;
1837;SDS011;918;50.796;6.772;2023-07-09T15:31:55;13.90;;;12.80;;
1837;SDS011;918;50.796;6.772;2023-07-09T15:34:21;14.10;;;13.00;;
1837;SDS011;918;50.796;6.772;2023-07-09T15:36:47;12.60;;;11.70;;
1837;SDS011;918;50.796;6.772;2023-07-09T15:39:14;13.43;;;12.23;;
1837;SDS011;918;50.796;6.772;2023-07-09T15:41:42;15.07;;;13.83;;
1837;SDS011;918;50.796;6.772;2023-07-09T15:44:12;14.20;;;13.10;;
1837;SDS011;918;50.796;6.772;2023-07-09T15:46:38;14.93;;;13.63;;
1837;SDS011;918;50.796;6.772;2023-07-09T15:49:05;13.87;;;12.77;;
1837;SDS011;918;50.796;6.772;2023-07-09T15:51:30;14.03;;;12.53;;
1837;SDS011;918;50.796;6.772;2023-07-09T15:53:56;13.87;;;12.87;;
1837;SDS011;918;50.796;6.772;2023-07-09T15:58:51;16.43;;;14.77;;
1837;SDS011;918;50.796;6.772;2023-07-09T16:01:17;14.80;;;13.70;;
1837;SDS011;918;50.796;6.772;2023-07-09T16:03:43;16.10;;;14.60;;
1837;SDS011;918;50.796;6.772;2023-07-09T16:06:12;13.40;;;12.33;;
1837;SDS011;918;50.796;6.772;2023-07-09T16:08:38;14.60;;;13.37;;
1837;SDS011;918;50.796;6.772;2023-07-09T16:11:14;13.70;;;12.50;;
1837;SDS011;918;50.796;6.772;2023-07-09T16:13:40;14.40;;;13.10;;
1837;SDS011;918;50.796;6.772;2023-07-09T16:16:07;13.10;;;12.10;;
1837;SDS011;918;50.796;6.772;2023-07-09T16:18:36;12.07;;;11.00;;